This is the latest recevied weather packets stored in our database for station/object WX2NJ. If no packets are shown the sender has not sent any weather packets the latest 10 day(s).
| Time | Temp. | Humidity | Pressure | Rain* | Wind** | Luminosity | Snow |
|---|---|---|---|---|---|---|---|
| 1777841654 | 16.67° C | 26% | 1015 hPa | 0 mm | - | 399 W/m² | - |
| 1777841350 | 16.67° C | 25% | 1014.8 hPa | 0 mm | - | 412 W/m² | - |
| 1777841048 | 16.67° C | 27% | 1014.9 hPa | 0 mm | - | 367 W/m² | - |
| 1777840745 | 16.11° C | 26% | 1014.8 hPa | 0 mm | - | 409 W/m² | - |
| 1777840442 | 16.67° C | 27% | 1014.9 hPa | 0 mm | - | 439 W/m² | - |
| 1777840139 | 16.67° C | 25% | 1014.9 hPa | 0 mm | - | 494 W/m² | - |
| 1777839837 | 16.67° C | 27% | 1014.9 hPa | 0 mm | - | 390 W/m² | - |
| 1777839535 | 16.67° C | 26% | 1014.9 hPa | 0 mm | - | 537 W/m² | - |
| 1777839232 | 16.67° C | 27% | 1014.9 hPa | 0 mm | - | 547 W/m² | - |
| 1777838929 | 16.67° C | 25% | 1015 hPa | 0 mm | - | 526 W/m² | - |
| 1777838625 | 16.11° C | 27% | 1015.1 hPa | 0 mm | - | 592 W/m² | - |
| 1777838322 | 16.67° C | 26% | 1015.3 hPa | 0 mm | - | 506 W/m² | - |
| 1777838019 | 15.56° C | 28% | 1015.1 hPa | 0 mm | - | 555 W/m² | - |
| 1777837716 | 16.67° C | 27% | 1015.2 hPa | 0 mm | - | 99 W/m² | - |
| 1777837412 | 16.11° C | 30% | 1015.2 hPa | 0 mm | - | 613 W/m² | - |
| 1777837108 | 16.11° C | 29% | 1015.4 hPa | 0 mm | - | 637 W/m² | - |
| 1777836804 | 16.67° C | 28% | 1015.4 hPa | 0 mm | - | 596 W/m² | - |
| 1777836501 | 16.67° C | 28% | 1015.4 hPa | 0 mm | - | 591 W/m² | - |
| 1777836196 | 16.11° C | 30% | 1015.5 hPa | 0 mm | - | 469 W/m² | - |
| 1777835892 | 16.11° C | 29% | 1015.4 hPa | 0 mm | - | 653 W/m² | - |
| 1777835590 | 15° C | 31% | 1015.5 hPa | 0 mm | - | 734 W/m² | - |
| 1777835286 | 16.67° C | 30% | 1015.6 hPa | 0 mm | - | 166 W/m² | - |
| 1777834984 | 15.56° C | 29% | 1015.7 hPa | 0 mm | - | 732 W/m² | - |
| 1777834681 | 16.11° C | 30% | 1015.6 hPa | 0 mm | - | 99 W/m² | - |
| 1777834376 | 15.56° C | 32% | 1015.7 hPa | 0 mm | - | 730 W/m² | - |
* Rain latest hour (hover to see other rain measurements)
** Current wind speed in m/s (hover to see current wind gust speed)